Time;durP1;ratioP1;P1;durP2;ratioP2;P2;SDS_P1;SDS_P2;PMS_P1;PMS_P2;Temp;Humidity;BMP_temperature;BMP_pressure;BME280_temperature;BME280_humidity;BME280_pressure;Samples;Min_cycle;Max_cycle;Signal;HPM_P1;HPM_P2
2023/06/21 00:00:18;;;;;;;4.50;3.58;;;;;;;21.01;100.00;100797.03;6249877;28;20053;-81
2023/06/21 00:03:20;;;;;;;6.63;3.90;;;;;;;21.00;100.00;100795.34;6247973;28;20068;-76
2023/06/21 00:06:21;;;;;;;10.20;4.47;;;;;;;21.08;100.00;100791.09;6250332;28;20042;-76
2023/06/21 00:09:22;;;;;;;7.18;4.25;;;;;;;21.04;100.00;100771.84;6249477;28;20045;-76
2023/06/21 00:12:26;;;;;;;7.18;3.72;;;;;;;21.13;100.00;100760.25;6249949;28;20050;-76
2023/06/21 00:15:28;;;;;;;7.13;3.55;;;;;;;21.11;100.00;100753.38;6250065;28;20045;-76
2023/06/21 00:18:29;;;;;;;6.18;3.42;;;;;;;21.08;100.00;100761.72;6250500;28;20057;-76
2023/06/21 00:21:30;;;;;;;11.93;5.93;;;;;;;21.14;100.00;100769.94;6249731;28;20081;-76
2023/06/21 00:24:32;;;;;;;11.27;4.55;;;;;;;21.15;100.00;100766.28;6250187;28;20054;-76
2023/06/21 00:27:35;;;;;;;5.82;4.28;;;;;;;21.11;100.00;100772.06;6250052;28;20349;-76
2023/06/21 00:30:37;;;;;;;7.72;4.57;;;;;;;21.12;100.00;100787.97;6249425;28;20063;-76
2023/06/21 00:33:38;;;;;;;6.97;4.70;;;;;;;21.05;100.00;100799.41;6249848;28;20049;-77
2023/06/21 00:36:41;;;;;;;8.48;5.22;;;;;;;20.94;100.00;100806.63;6250376;28;20048;-76
2023/06/21 00:39:43;;;;;;;9.00;5.00;;;;;;;20.96;100.00;100809.97;6250055;28;20363;-76
2023/06/21 00:42:46;;;;;;;7.30;4.78;;;;;;;20.97;100.00;100816.16;6249560;28;20050;-76
2023/06/21 00:45:48;;;;;;;11.02;5.40;;;;;;;20.79;100.00;100805.41;6249680;28;20383;-76
2023/06/21 00:48:49;;;;;;;11.50;5.93;;;;;;;20.76;100.00;100797.72;6250261;28;20175;-76
2023/06/21 00:51:53;;;;;;;10.60;5.38;;;;;;;20.64;100.00;100807.72;6249421;28;20050;-76
2023/06/21 00:54:54;;;;;;;9.25;5.30;;;;;;;20.60;100.00;100797.47;6250030;28;20049;-76
2023/06/21 00:57:58;;;;;;;12.50;6.20;;;;;;;20.60;100.00;100800.16;6250274;28;20057;-77
2023/06/21 01:00:59;;;;;;;10.88;5.75;;;;;;;20.65;100.00;100805.88;6249632;28;20164;-76
2023/06/21 01:04:01;;;;;;;9.75;5.55;;;;;;;20.64;100.00;100814.91;6254546;28;20132;-76
2023/06/21 01:07:14;;;;;;;6.70;4.43;;;;;;;20.75;100.00;100812.88;6254209;28;20049;-76
2023/06/21 01:10:27;;;;;;;10.70;5.80;;;;;;;20.65;100.00;100817.41;6253579;28;20358;-76
2023/06/21 01:13:41;;;;;;;8.85;5.43;;;;;;;20.67;100.00;100820.78;6254161;28;20049;-76
2023/06/21 01:16:46;;;;;;;11.43;5.53;;;;;;;20.51;100.00;100815.19;6253541;28;20140;-76
2023/06/21 01:19:50;;;;;;;8.68;5.25;;;;;;;20.50;100.00;100825.03;6253852;28;20052;-76
2023/06/21 01:23:09;;;;;;;11.30;5.25;;;;;;;20.54;100.00;100832.78;6253286;28;20054;-76
2023/06/21 01:26:13;;;;;;;6.37;4.33;;;;;;;20.55;100.00;100840.63;6253882;28;20056;-76
2023/06/21 01:29:21;;;;;;;9.15;5.85;;;;;;;20.44;100.00;100851.47;6253969;28;20045;-77
2023/06/21 01:32:24;;;;;;;13.68;6.00;;;;;;;20.42;100.00;100845.41;6253157;28;20083;-77
2023/06/21 01:35:25;;;;;;;10.68;6.50;;;;;;;20.40;100.00;100852.72;6253732;28;20045;-76
2023/06/21 01:38:27;;;;;;;10.07;5.20;;;;;;;20.38;100.00;100860.84;6253507;28;20049;-77
2023/06/21 01:41:29;;;;;;;6.95;5.15;;;;;;;20.37;100.00;100859.19;6253333;28;20049;-77
2023/06/21 01:44:31;;;;;;;9.55;5.85;;;;;;;20.32;100.00;100853.44;6253307;28;20054;-76
2023/06/21 01:47:34;;;;;;;8.90;5.20;;;;;;;20.37;100.00;100863.69;6253396;28;20049;-76
2023/06/21 01:50:37;;;;;;;7.80;5.40;;;;;;;20.36;100.00;100870.84;6252643;28;20072;-76
2023/06/21 01:53:39;;;;;;;7.85;5.38;;;;;;;20.35;100.00;100873.63;6253387;28;20606;-76
2023/06/21 01:56:42;;;;;;;7.93;4.82;;;;;;;20.41;100.00;100865.09;6252193;28;20046;-76
2023/06/21 01:59:45;;;;;;;9.77;5.68;;;;;;;20.27;100.00;100877.88;6253154;28;20149;-77
2023/06/21 02:02:50;;;;;;;10.68;5.47;;;;;;;20.20;100.00;100882.06;6252404;28;20046;-77
2023/06/21 02:05:52;;;;;;;9.18;5.82;;;;;;;20.12;100.00;100887.31;6253201;28;20061;-76
2023/06/21 02:08:55;;;;;;;9.57;6.32;;;;;;;20.07;100.00;100894.84;6251959;28;20438;-82
2023/06/21 02:11:56;;;;;;;9.32;6.10;;;;;;;19.99;100.00;100895.56;6252107;28;20042;-83
2023/06/21 02:14:59;;;;;;;10.18;6.57;;;;;;;20.00;100.00;100904.41;6251850;28;20050;-77
2023/06/21 02:18:01;;;;;;;9.57;6.57;;;;;;;20.02;100.00;100908.63;6252727;28;20128;-77
2023/06/21 02:21:02;;;;;;;10.25;7.05;;;;;;;19.95;100.00;100918.16;6252058;28;20060;-77
2023/06/21 02:24:04;;;;;;;11.40;7.20;;;;;;;20.02;100.00;100921.09;6252503;28;20093;-77
2023/06/21 02:27:06;;;;;;;11.43;7.22;;;;;;;20.00;100.00;100917.75;6252611;28;20049;-76
2023/06/21 02:30:10;;;;;;;12.20;7.47;;;;;;;19.96;100.00;100917.19;6251802;28;20049;-77
2023/06/21 02:33:11;;;;;;;9.50;6.38;;;;;;;19.99;100.00;100922.25;6252552;28;20069;-76
2023/06/21 02:36:13;;;;;;;15.15;7.35;;;;;;;19.96;100.00;100925.19;6252251;28;20049;-77
2023/06/21 02:39:15;;;;;;;10.80;6.28;;;;;;;19.95;100.00;100920.84;6251510;28;20049;-76
2023/06/21 02:42:16;;;;;;;12.60;8.07;;;;;;;19.99;100.00;100924.06;6251048;28;20045;-77
2023/06/21 02:45:19;;;;;;;10.90;8.05;;;;;;;20.04;100.00;100926.31;6250997;28;20060;-77
2023/06/21 02:48:20;;;;;;;11.10;7.47;;;;;;;20.03;100.00;100928.16;6248732;28;20128;-76
2023/06/21 02:51:24;;;;;;;14.48;8.10;;;;;;;20.05;100.00;100926.19;6245594;28;20463;-77
2023/06/21 02:54:26;;;;;;;11.38;7.97;;;;;;;20.07;100.00;100931.38;6254717;28;20068;-77
2023/06/21 02:57:27;;;;;;;12.07;7.88;;;;;;;20.00;100.00;100931.09;6268202;28;20449;-77
2023/06/21 03:00:31;;;;;;;10.45;6.10;;;;;;;20.02;100.00;100931.78;6250831;28;20045;-77
2023/06/21 03:03:33;;;;;;;12.68;8.52;;;;;;;19.99;100.00;100930.25;6254603;28;20442;-76
2023/06/21 03:06:34;;;;;;;12.77;8.85;;;;;;;19.93;100.00;100928.13;6251863;28;20060;-77
2023/06/21 03:09:36;;;;;;;13.02;8.45;;;;;;;19.97;100.00;100920.69;6256260;28;20053;-77
2023/06/21 03:12:37;;;;;;;14.05;8.50;;;;;;;20.04;100.00;100929.00;6261712;28;20045;-77
2023/06/21 03:15:40;;;;;;;10.07;7.35;;;;;;;20.04;100.00;100934.34;6250706;28;20072;-77
2023/06/21 03:18:42;;;;;;;12.55;8.13;;;;;;;20.06;100.00;100946.53;6273293;28;20437;-77
2023/06/21 03:21:43;;;;;;;13.85;9.10;;;;;;;20.00;100.00;100939.94;6274964;28;20052;-77
2023/06/21 03:24:44;;;;;;;12.93;8.32;;;;;;;20.00;100.00;100944.44;6252797;28;20136;-77
2023/06/21 03:27:47;;;;;;;8.68;6.05;;;;;;;20.02;100.00;100953.97;6251052;28;20045;-77
2023/06/21 03:30:50;;;;;;;11.75;7.95;;;;;;;19.98;100.00;100965.06;6250327;28;20159;-77
2023/06/21 03:33:51;;;;;;;14.73;8.32;;;;;;;19.93;100.00;100967.28;6249629;28;20056;-77
2023/06/21 03:36:54;;;;;;;11.68;8.27;;;;;;;19.87;100.00;100973.19;6250364;28;20045;-77
2023/06/21 03:39:56;;;;;;;10.57;6.68;;;;;;;19.88;100.00;100980.19;6250783;28;20076;-76
2023/06/21 03:42:57;;;;;;;9.05;5.95;;;;;;;19.87;100.00;100983.84;6249661;28;20442;-77
2023/06/21 03:46:00;;;;;;;9.95;7.50;;;;;;;19.81;100.00;100990.59;6250440;28;20053;-76
2023/06/21 03:49:02;;;;;;;9.13;6.93;;;;;;;19.77;100.00;100991.81;6236946;28;20045;-77
2023/06/21 03:52:04;;;;;;;10.63;6.75;;;;;;;19.78;100.00;100998.84;6230310;28;20045;-77
2023/06/21 03:55:07;;;;;;;13.63;8.30;;;;;;;19.77;100.00;101006.00;6232763;28;20056;-76
2023/06/21 03:58:08;;;;;;;11.23;7.68;;;;;;;19.75;100.00;101004.44;6224233;28;20050;-76
2023/06/21 04:01:11;;;;;;;12.43;8.40;;;;;;;19.72;100.00;101008.22;6239161;28;20053;-77
2023/06/21 04:04:13;;;;;;;14.43;8.57;;;;;;;19.74;100.00;101016.09;6239446;28;20048;-77
2023/06/21 04:07:17;;;;;;;12.15;8.18;;;;;;;19.67;100.00;101018.47;6254053;28;20049;-77
2023/06/21 04:10:18;;;;;;;15.02;8.63;;;;;;;19.64;100.00;101029.38;6232726;28;20612;-77
2023/06/21 04:13:20;;;;;;;13.55;8.52;;;;;;;19.71;100.00;101029.69;6232260;28;20064;-77
2023/06/21 04:16:22;;;;;;;11.90;6.47;;;;;;;19.74;100.00;101038.25;6231104;28;20041;-77
2023/06/21 04:19:24;;;;;;;9.95;7.60;;;;;;;19.74;100.00;101054.25;6233094;28;20045;-77
2023/06/21 04:22:25;;;;;;;13.18;8.75;;;;;;;19.74;100.00;101066.75;6232742;28;20049;-77
2023/06/21 04:25:26;;;;;;;15.45;9.35;;;;;;;19.65;100.00;101063.06;6232596;28;20060;-78
2023/06/21 04:28:28;;;;;;;16.80;9.13;;;;;;;19.67;100.00;101060.28;6232266;28;20474;-77
2023/06/21 04:31:30;;;;;;;15.02;8.63;;;;;;;19.62;100.00;101074.00;6229262;28;20048;-77
2023/06/21 04:34:33;;;;;;;13.45;8.70;;;;;;;19.59;100.00;101076.06;6231881;28;20128;-77
2023/06/21 04:37:34;;;;;;;13.65;9.00;;;;;;;19.57;100.00;101078.84;6254642;28;20450;-77
2023/06/21 04:40:35;;;;;;;14.68;9.50;;;;;;;19.47;100.00;101084.13;6262896;28;20056;-79
2023/06/21 04:43:37;;;;;;;21.83;10.13;;;;;;;19.54;100.00;101088.94;6256720;28;20041;-77
2023/06/21 04:46:39;;;;;;;18.63;9.90;;;;;;;19.57;100.00;101094.84;6256441;28;20049;-77
2023/06/21 04:49:41;;;;;;;21.00;11.30;;;;;;;19.57;100.00;101096.66;6270370;28;20052;-77
2023/06/21 04:52:48;;;;;;;18.17;11.05;;;;;;;19.46;100.00;101092.25;6264631;28;20071;-77
2023/06/21 04:55:52;;;;;;;15.93;11.07;;;;;;;19.47;100.00;101100.13;6271185;28;20049;-78
2023/06/21 04:58:53;;;;;;;15.35;10.32;;;;;;;19.46;100.00;101095.75;6254677;28;20041;-77
2023/06/21 05:01:56;;;;;;;19.48;11.30;;;;;;;19.49;100.00;101094.69;6254319;28;20049;-79
2023/06/21 05:04:57;;;;;;;15.18;9.88;;;;;;;19.55;100.00;101102.13;6262420;28;20053;-77
2023/06/21 05:07:59;;;;;;;16.52;9.85;;;;;;;19.58;100.00;101098.38;6261953;28;20049;-79
2023/06/21 05:11:00;;;;;;;18.17;10.02;;;;;;;19.58;100.00;101096.56;6245300;28;20489;-78
2023/06/21 05:14:02;;;;;;;20.98;11.60;;;;;;;19.57;100.00;101099.31;6253712;28;20052;-79
2023/06/21 05:17:05;;;;;;;14.48;9.48;;;;;;;19.63;100.00;101101.53;6253832;28;20053;-77
2023/06/21 05:20:08;;;;;;;18.88;10.45;;;;;;;19.58;100.00;101101.03;6262211;28;20053;-78
2023/06/21 05:23:10;;;;;;;20.35;11.25;;;;;;;19.51;100.00;101098.88;6255004;28;20045;-79
2023/06/21 05:26:11;;;;;;;19.70;11.88;;;;;;;19.54;100.00;101107.59;6268646;28;20056;-78
2023/06/21 05:29:12;;;;;;;16.60;9.40;;;;;;;19.62;100.00;101105.13;6270043;28;20052;-78
2023/06/21 05:32:15;;;;;;;18.50;10.80;;;;;;;19.61;100.00;101116.78;6253030;28;20054;-79
2023/06/21 05:35:16;;;;;;;15.32;9.25;;;;;;;19.60;100.00;101115.94;6263739;28;20052;-83
2023/06/21 05:38:18;;;;;;;16.55;9.57;;;;;;;19.62;100.00;101121.13;6259371;28;20041;-80
2023/06/21 05:41:19;;;;;;;14.57;9.60;;;;;;;19.60;100.00;101125.75;6252820;28;20056;-81
2023/06/21 05:44:20;;;;;;;14.63;8.07;;;;;;;19.66;100.00;101118.06;6255731;28;20060;-78
2023/06/21 05:47:23;;;;;;;13.55;8.90;;;;;;;19.69;100.00;101116.97;6258762;28;20045;-78
2023/06/21 05:50:25;;;;;;;16.23;7.82;;;;;;;19.77;100.00;101126.00;6272293;28;20045;-79
2023/06/21 05:53:26;;;;;;;14.15;8.48;;;;;;;19.84;100.00;101126.31;6261313;28;20048;-77
2023/06/21 05:56:28;;;;;;;13.68;8.85;;;;;;;19.77;100.00;101126.00;6261279;28;20048;-77
2023/06/21 05:59:30;;;;;;;12.73;8.23;;;;;;;19.81;100.00;101134.59;6247804;28;20042;-77
2023/06/21 06:02:33;;;;;;;14.23;8.93;;;;;;;19.82;100.00;101136.28;6256351;28;20045;-78
2023/06/21 06:05:34;;;;;;;13.02;8.80;;;;;;;19.81;100.00;101136.44;6256489;28;20449;-78
2023/06/21 06:08:35;;;;;;;13.60;8.73;;;;;;;19.81;100.00;101141.75;6261567;28;20044;-78
2023/06/21 06:11:37;;;;;;;14.23;8.82;;;;;;;19.83;100.00;101143.31;6250813;28;20053;-79
2023/06/21 06:14:38;;;;;;;14.43;9.45;;;;;;;19.90;100.00;101152.47;6251114;28;20050;-78
2023/06/21 06:17:41;;;;;;;15.25;9.00;;;;;;;19.98;100.00;101141.13;6257886;28;20052;-78
2023/06/21 06:20:43;;;;;;;16.95;9.15;;;;;;;20.02;100.00;101156.75;6262432;28;20037;-77
2023/06/21 06:23:44;;;;;;;14.57;8.65;;;;;;;20.05;100.00;101166.31;6252185;28;20417;-77
2023/06/21 06:26:45;;;;;;;14.32;9.00;;;;;;;19.98;100.00;101171.34;6253304;28;20045;-78
2023/06/21 06:29:47;;;;;;;16.27;8.45;;;;;;;19.99;100.00;101186.38;6251848;28;20056;-77
2023/06/21 06:32:49;;;;;;;14.45;9.40;;;;;;;19.95;100.00;101187.63;6254268;28;20588;-81
2023/06/21 06:35:51;;;;;;;12.50;7.80;;;;;;;20.02;100.00;101182.56;6251801;28;20052;-78
2023/06/21 06:38:53;;;;;;;13.57;8.63;;;;;;;20.02;100.00;101187.91;6275731;28;20048;-78
2023/06/21 06:41:54;;;;;;;14.88;8.68;;;;;;;19.96;100.00;101196.47;6275952;28;20045;-78
2023/06/21 06:44:56;;;;;;;12.30;8.27;;;;;;;19.88;100.00;101207.78;6272937;28;20040;-77
2023/06/21 06:47:58;;;;;;;10.50;8.13;;;;;;;19.84;100.00;101217.00;6276287;28;20052;-80
2023/06/21 06:51:00;;;;;;;14.13;7.30;;;;;;;19.87;100.00;101215.91;6251186;28;20045;-76
2023/06/21 06:54:02;;;;;;;13.85;8.02;;;;;;;19.87;100.00;101219.44;6243615;28;20053;-81
2023/06/21 06:57:04;;;;;;;11.85;5.93;;;;;;;19.88;100.00;101221.09;6251871;28;20349;-76
2023/06/21 07:00:09;;;;;;;10.38;6.45;;;;;;;19.94;100.00;101228.63;6259711;28;20056;-76
2023/06/21 07:03:12;;;;;;;11.20;7.03;;;;;;;19.98;100.00;101218.50;6267853;28;20059;-79
2023/06/21 07:06:14;;;;;;;8.77;5.15;;;;;;;20.09;100.00;101220.28;6276097;28;20060;-77
2023/06/21 07:09:15;;;;;;;6.95;4.53;;;;;;;20.14;100.00;101224.22;6273733;28;20045;-77
2023/06/21 07:12:17;;;;;;;8.70;5.80;;;;;;;20.13;100.00;101219.88;6250461;28;20053;-77
2023/06/21 07:15:18;;;;;;;9.00;5.63;;;;;;;20.16;100.00;101224.09;6250603;28;20130;-77
2023/06/21 07:18:21;;;;;;;9.30;5.63;;;;;;;20.17;100.00;101231.13;6251221;28;20449;-87
2023/06/21 07:21:22;;;;;;;12.77;6.97;;;;;;;20.14;100.00;101240.22;6269784;28;20048;-76
2023/06/21 07:24:23;;;;;;;10.20;6.55;;;;;;;20.19;100.00;101240.69;6264414;28;20041;-74
2023/06/21 07:27:25;;;;;;;13.73;6.68;;;;;;;20.26;100.00;101243.69;6250973;28;20053;-72
2023/06/21 07:30:27;;;;;;;8.55;5.93;;;;;;;20.31;100.00;101244.13;6249946;28;20659;-75
2023/06/21 07:33:30;;;;;;;11.85;6.53;;;;;;;20.36;100.00;101244.56;6250882;28;20053;-76
2023/06/21 07:36:31;;;;;;;10.13;5.85;;;;;;;20.45;100.00;101248.28;6250668;28;20053;-74
2023/06/21 07:39:33;;;;;;;8.98;5.75;;;;;;;20.51;100.00;101256.63;6250873;28;20052;-77
2023/06/21 07:42:34;;;;;;;10.10;6.07;;;;;;;20.57;100.00;101257.06;6269359;28;20054;-74
2023/06/21 07:45:35;;;;;;;12.90;5.78;;;;;;;20.61;100.00;101262.00;6250289;28;20516;-77
2023/06/21 07:48:39;;;;;;;7.57;4.80;;;;;;;20.65;100.00;101258.06;6266795;28;20358;-76
2023/06/21 07:51:41;;;;;;;5.82;4.45;;;;;;;20.72;100.00;101253.06;6249826;28;20094;-74
2023/06/21 07:54:42;;;;;;;7.80;4.85;;;;;;;20.78;100.00;101261.34;6245919;28;20381;-77
2023/06/21 07:57:44;;;;;;;7.03;4.75;;;;;;;20.86;100.00;101250.00;6256629;28;20052;-75
2023/06/21 08:00:45;;;;;;;7.50;4.82;;;;;;;20.90;100.00;101256.78;6249590;28;20038;-76
2023/06/21 08:03:48;;;;;;;8.75;4.93;;;;;;;20.94;100.00;101255.53;6250841;28;20349;-74
2023/06/21 08:06:49;;;;;;;8.02;5.78;;;;;;;20.91;100.00;101255.78;6262867;28;20052;-74
2023/06/21 08:09:50;;;;;;;8.82;5.25;;;;;;;20.94;100.00;101250.19;6265226;28;20041;-73
2023/06/21 08:12:52;;;;;;;6.88;4.40;;;;;;;21.02;100.00;101252.13;6273218;28;20045;-73
2023/06/21 08:15:53;;;;;;;6.35;4.38;;;;;;;21.00;100.00;101246.09;6258929;28;20049;-74
2023/06/21 08:18:56;;;;;;;6.47;3.67;;;;;;;21.10;100.00;101265.66;6262433;28;20041;-77
2023/06/21 08:21:57;;;;;;;4.50;3.45;;;;;;;21.24;100.00;101262.59;6270419;28;20060;-74
2023/06/21 08:24:58;;;;;;;5.35;3.30;;;;;;;21.29;100.00;101262.19;6264002;28;20450;-76
2023/06/21 08:28:00;;;;;;;4.75;3.47;;;;;;;21.36;100.00;101262.53;6253571;28;20361;-75
2023/06/21 08:31:01;;;;;;;6.65;3.40;;;;;;;21.36;100.00;101263.34;6254470;28;20046;-73
2023/06/21 08:34:04;;;;;;;5.32;3.15;;;;;;;21.42;100.00;101262.78;6254795;28;20049;-73
2023/06/21 08:37:06;;;;;;;7.63;4.13;;;;;;;21.46;100.00;101250.00;6254690;28;20056;-77
2023/06/21 08:40:09;;;;;;;7.03;3.78;;;;;;;21.53;100.00;101254.66;6272199;28;20060;-75
2023/06/21 08:43:10;;;;;;;6.07;3.50;;;;;;;21.65;100.00;101265.19;6271997;28;20462;-78
2023/06/21 08:46:11;;;;;;;6.22;3.72;;;;;;;21.79;100.00;101270.13;6278014;28;20056;-74
2023/06/21 08:49:18;;;;;;;6.32;3.45;;;;;;;21.79;100.00;101278.13;6254412;28;20065;-74
2023/06/21 08:52:21;;;;;;;6.63;3.80;;;;;;;21.74;100.00;101275.06;6253799;28;20349;-71
2023/06/21 08:55:24;;;;;;;4.35;2.78;;;;;;;21.72;100.00;101279.72;6247278;28;20053;-74
2023/06/21 08:58:28;;;;;;;5.97;2.95;;;;;;;21.78;100.00;101279.97;6262710;28;20042;-73
2023/06/21 09:01:33;;;;;;;4.30;3.20;;;;;;;21.84;100.00;101277.72;6253623;28;20041;-74
2023/06/21 09:04:46;;;;;;;5.03;3.13;;;;;;;21.92;100.00;101281.38;6239806;28;20089;-77
2023/06/21 09:07:47;;;;;;;3.72;2.65;;;;;;;21.98;100.00;101274.59;6258636;28;20565;-74
2023/06/21 09:10:52;;;;;;;7.22;3.33;;;;;;;21.93;100.00;101280.38;6253373;28;20358;-74
2023/06/21 09:13:54;;;;;;;5.28;3.05;;;;;;;22.00;100.00;101288.69;6259349;28;20123;-72
2023/06/21 09:16:55;;;;;;;4.22;3.17;;;;;;;22.10;100.00;101292.19;6244513;28;20045;-73
2023/06/21 09:19:58;;;;;;;5.10;3.20;;;;;;;22.16;100.00;101293.47;6258967;28;20048;-73
2023/06/21 09:23:00;;;;;;;5.85;3.25;;;;;;;22.14;100.00;101295.47;6248734;28;20045;-76
2023/06/21 09:26:03;;;;;;;5.00;3.38;;;;;;;22.18;100.00;101299.56;6243448;28;20048;-74
2023/06/21 09:29:04;;;;;;;4.00;3.05;;;;;;;22.21;100.00;101304.59;6253668;28;20362;-75
2023/06/21 09:32:06;;;;;;;7.47;3.10;;;;;;;22.16;100.00;101294.31;6259886;28;20054;-74
2023/06/21 09:35:10;;;;;;;4.22;2.70;;;;;;;22.35;100.00;101303.34;6259374;28;20461;-74
2023/06/21 09:38:23;;;;;;;5.15;3.40;;;;;;;22.34;100.00;101299.78;6263305;28;20053;-72
2023/06/21 09:41:24;;;;;;;5.32;3.45;;;;;;;22.41;100.00;101300.06;6256328;28;20045;-73
2023/06/21 09:44:25;;;;;;;4.82;3.13;;;;;;;22.41;100.00;101302.75;6252838;28;20049;-73
2023/06/21 09:47:30;;;;;;;5.80;2.70;;;;;;;22.46;100.00;101293.28;6257878;28;20105;-73
2023/06/21 09:50:37;;;;;;;4.90;3.47;;;;;;;22.51;100.00;101290.16;6259037;28;20358;-73
2023/06/21 09:53:42;;;;;;;4.95;3.10;;;;;;;22.64;100.00;101298.72;6264905;28;20342;-75
2023/06/21 09:56:45;;;;;;;4.70;3.30;;;;;;;22.79;100.00;101293.72;6261115;28;20139;-75
2023/06/21 09:59:49;;;;;;;3.92;2.78;;;;;;;22.75;100.00;101303.03;6255124;28;20330;-74
2023/06/21 10:02:53;;;;;;;3.83;2.45;;;;;;;22.77;100.00;101296.56;6255500;28;20094;-73
2023/06/21 10:05:56;;;;;;;4.43;2.70;;;;;;;22.82;100.00;101319.38;6240205;28;20049;-73
2023/06/21 10:08:58;;;;;;;4.32;2.78;;;;;;;22.84;100.00;101304.00;6237425;28;20046;-73
2023/06/21 10:11:59;;;;;;;3.45;2.33;;;;;;;22.88;100.00;101308.06;6237282;28;20053;-73
2023/06/21 10:15:00;;;;;;;4.45;2.50;;;;;;;22.99;100.00;101319.50;6245822;28;20054;-73
2023/06/21 10:18:03;;;;;;;3.65;2.35;;;;;;;23.10;100.00;101309.56;6234407;28;20049;-71
2023/06/21 10:21:07;;;;;;;4.82;2.33;;;;;;;23.18;100.00;101313.16;6235935;28;20045;-73
2023/06/21 10:24:13;;;;;;;5.15;2.88;;;;;;;23.23;100.00;101310.88;6225544;28;20064;-74
2023/06/21 10:27:16;;;;;;;4.28;3.05;;;;;;;23.31;100.00;101310.13;6245154;28;20450;-72
2023/06/21 10:30:20;;;;;;;4.55;2.92;;;;;;;23.31;100.00;101315.50;6245267;28;20048;-73
2023/06/21 10:33:22;;;;;;;5.40;3.25;;;;;;;23.42;100.00;101323.31;6225894;28;20053;-73
2023/06/21 10:36:31;;;;;;;3.47;2.33;;;;;;;23.54;100.00;101330.16;6227017;28;20068;-72
2023/06/21 10:39:34;;;;;;;5.93;2.65;;;;;;;23.58;100.00;101325.34;6239143;28;20045;-74
2023/06/21 10:42:37;;;;;;;4.13;2.50;;;;;;;23.66;100.00;101332.66;6251692;28;20048;-75
2023/06/21 10:45:41;;;;;;;5.63;3.95;;;;;;;23.69;100.00;101327.81;6242255;28;20058;-77
2023/06/21 10:48:44;;;;;;;5.95;3.15;;;;;;;23.74;100.00;101324.69;6240913;28;20048;-74
2023/06/21 10:51:48;;;;;;;4.43;2.75;;;;;;;23.70;100.00;101315.25;6235514;28;20046;-78
2023/06/21 10:54:51;;;;;;;4.00;3.05;;;;;;;23.83;100.00;101331.81;6245223;28;20049;-80
2023/06/21 10:57:55;;;;;;;6.22;3.38;;;;;;;23.94;100.00;101330.75;6248282;28;20054;-76
2023/06/21 11:00:57;;;;;;;5.43;3.15;;;;;;;23.90;100.00;101326.69;6250674;28;20048;-75
2023/06/21 11:03:58;;;;;;;4.68;3.30;;;;;;;24.03;100.00;101341.41;6247931;28;20061;-73
2023/06/21 11:07:01;;;;;;;4.18;3.10;;;;;;;24.03;100.00;101329.81;6230502;28;20049;-73
2023/06/21 11:10:04;;;;;;;5.60;3.47;;;;;;;24.20;100.00;101336.97;6229073;28;20045;-72
2023/06/21 11:13:06;;;;;;;5.30;3.70;;;;;;;24.41;100.00;101338.53;6247502;28;20057;-75
2023/06/21 11:16:13;;;;;;;5.53;3.42;;;;;;;24.47;100.00;101343.25;6237236;28;20053;-72
2023/06/21 11:19:15;;;;;;;6.90;3.40;;;;;;;24.50;100.00;101354.53;6236316;28;20052;-72
2023/06/21 11:22:23;;;;;;;5.57;3.63;;;;;;;24.70;100.00;101340.88;6254628;28;20041;-75
2023/06/21 11:25:27;;;;;;;4.93;3.60;;;;;;;24.85;99.74;101344.66;6247516;28;20441;-73
2023/06/21 11:28:32;;;;;;;6.10;4.10;;;;;;;24.90;98.89;101354.94;6250079;28;20045;-73
2023/06/21 11:31:39;;;;;;;5.65;3.80;;;;;;;24.85;99.87;101352.75;6247463;28;20052;-72
2023/06/21 11:34:53;;;;;;;7.35;4.38;;;;;;;24.98;99.72;101357.66;6251538;28;20056;-72
2023/06/21 11:37:57;;;;;;;5.18;3.70;;;;;;;25.13;100.00;101372.22;6254979;28;20056;-73
2023/06/21 11:40:59;;;;;;;5.72;3.47;;;;;;;25.21;99.76;101368.75;6234309;28;20053;-72
2023/06/21 11:44:00;;;;;;;5.93;4.30;;;;;;;25.34;95.77;101369.09;6246778;28;20052;-74
2023/06/21 11:47:15;;;;;;;4.13;3.13;;;;;;;25.32;97.54;101371.13;6239493;28;20041;-72
2023/06/21 11:50:17;;;;;;;6.07;4.25;;;;;;;25.26;98.27;101380.69;6244928;28;20046;-73
2023/06/21 11:53:23;;;;;;;6.53;4.00;;;;;;;25.25;97.74;101379.00;6239168;28;20056;-74
2023/06/21 11:56:29;;;;;;;5.47;3.95;;;;;;;25.17;97.18;101373.59;6239127;28;20048;-73
2023/06/21 11:59:32;;;;;;;5.38;3.95;;;;;;;25.39;99.20;101380.25;6247938;28;20037;-74
2023/06/21 12:02:35;;;;;;;5.15;3.65;;;;;;;25.73;96.37;101371.22;6232227;28;20042;-73
2023/06/21 12:05:52;;;;;;;7.38;4.13;;;;;;;26.14;96.53;101379.38;6242843;28;20377;-73
2023/06/21 12:08:58;;;;;;;5.65;3.55;;;;;;;26.16;96.03;101382.75;6237217;28;20088;-74
2023/06/21 12:12:00;;;;;;;6.25;4.22;;;;;;;25.87;91.23;101384.06;6245896;28;20195;-74
2023/06/21 12:15:01;;;;;;;5.57;3.33;;;;;;;25.91;87.36;101388.13;6245207;28;20060;-74
2023/06/21 12:18:06;;;;;;;5.50;3.50;;;;;;;26.00;84.97;101395.19;6241421;28;20100;-74
2023/06/21 12:21:07;;;;;;;5.30;3.33;;;;;;;26.29;84.54;101400.09;6246989;28;20057;-73
2023/06/21 12:24:10;;;;;;;6.80;3.88;;;;;;;26.17;82.45;101396.06;6231833;28;20348;-73
2023/06/21 12:27:13;;;;;;;4.65;3.40;;;;;;;26.04;86.52;101403.78;6224487;28;20362;-74
2023/06/21 12:30:15;;;;;;;5.00;3.55;;;;;;;25.94;92.74;101403.13;6233406;28;20128;-73
2023/06/21 12:33:17;;;;;;;5.72;3.92;;;;;;;26.12;87.63;101400.28;6224895;28;20359;-73
2023/06/21 12:36:21;;;;;;;4.88;3.42;;;;;;;26.18;83.90;101402.28;6224699;28;20054;-74
2023/06/21 12:39:24;;;;;;;4.70;3.67;;;;;;;26.28;83.58;101409.19;6234730;28;20369;-73
2023/06/21 12:42:29;;;;;;;4.47;2.83;;;;;;;26.26;84.63;101413.06;6242442;28;20085;-74
2023/06/21 12:45:30;;;;;;;4.85;3.28;;;;;;;26.52;90.18;101419.13;6244003;28;20087;-73
2023/06/21 12:48:32;;;;;;;5.95;3.97;;;;;;;26.40;85.35;101417.78;6248056;28;20052;-75
2023/06/21 12:51:36;;;;;;;6.88;3.17;;;;;;;26.57;83.07;101410.53;6244618;28;20041;-76
2023/06/21 12:54:52;;;;;;;4.88;2.92;;;;;;;26.76;82.25;101410.19;6257392;28;20045;-74
2023/06/21 12:57:53;;;;;;;7.45;3.70;;;;;;;27.11;81.90;101412.66;6234804;28;20050;-77
2023/06/21 13:00:55;;;;;;;3.35;2.63;;;;;;;27.24;81.44;101418.34;6238166;28;20052;-73
2023/06/21 13:03:57;;;;;;;4.13;2.80;;;;;;;27.43;82.86;101417.91;6239672;28;20045;-73
2023/06/21 13:06:59;;;;;;;4.22;2.80;;;;;;;27.17;82.01;101420.06;6236561;28;20421;-73
2023/06/21 13:10:01;;;;;;;3.55;2.45;;;;;;;27.48;79.16;101417.38;6244541;28;20401;-73
2023/06/21 13:13:03;;;;;;;5.20;3.25;;;;;;;27.64;78.89;101405.69;6239447;28;20050;-73
2023/06/21 13:16:05;;;;;;;4.03;2.83;;;;;;;27.47;80.14;101418.41;6242449;28;20132;-74
2023/06/21 13:19:07;;;;;;;4.28;2.75;;;;;;;26.96;80.35;101417.91;6235921;28;20053;-74
2023/06/21 13:22:09;;;;;;;3.72;2.88;;;;;;;26.76;80.98;101412.06;6240235;28;20136;-73
2023/06/21 13:25:12;;;;;;;5.90;3.05;;;;;;;26.94;84.20;101418.09;6237456;28;20466;-73
2023/06/21 13:28:14;;;;;;;6.45;3.45;;;;;;;27.19;83.98;101404.53;6230580;28;20050;-73
2023/06/21 13:31:17;;;;;;;3.90;3.05;;;;;;;26.93;66.52;101413.69;6227265;28;20046;-73
2023/06/21 13:34:18;;;;;;;5.00;3.40;;;;;;;26.95;66.57;101416.22;6232340;28;20061;-73
2023/06/21 13:37:19;;;;;;;5.22;2.90;;;;;;;27.11;67.20;101404.56;6234127;28;20050;-73
2023/06/21 13:40:22;;;;;;;4.18;2.88;;;;;;;27.17;66.95;101412.81;6232022;28;20046;-73
2023/06/21 13:43:24;;;;;;;4.65;2.53;;;;;;;27.17;65.22;101412.81;6239573;28;20064;-73
2023/06/21 13:46:25;;;;;;;3.70;2.83;;;;;;;27.36;67.79;101411.56;6241949;28;20050;-73
2023/06/21 13:49:26;;;;;;;4.78;3.13;;;;;;;27.74;64.05;101415.25;6239066;28;20056;-73
2023/06/21 13:52:31;;;;;;;6.70;3.00;;;;;;;27.63;68.04;101412.94;6238031;28;20045;-73
2023/06/21 13:55:36;;;;;;;5.93;3.00;;;;;;;27.88;59.42;101415.50;6238862;28;20100;-73